LOG39GA EGPL-EGPF

Flight info

Callsign LOG39GA
Flight time 0h 41m
Altitude 19000
Route BEN DCT TOBMO Y958 BRUCE
Aircraft E145/M-SABDFGRW/S

Departure

Time 2026-04-16 20:42
Airport Benbecula Airport (EGPL)

Arrival

Time 2026-04-16 21:23
Airport Glasgow Airport (EGPF)
Time Latitude Longitude Altitude Speed Heading
2026-04-16 20:18 57.47523 -7.37190 23 ft 0 kts 63°
2026-04-16 20:32 57.47523 -7.37188 23 ft 0 kts 69°
2026-04-16 20:33 57.47523 -7.37175 23 ft 1 kts 106°
2026-04-16 20:33 57.47517 -7.37171 23 ft 1 kts 182°
2026-04-16 20:33 57.47506 -7.37197 23 ft 4 kts 251°
2026-04-16 20:33 57.47502 -7.37285 23 ft 8 kts 281°
2026-04-16 20:34 57.47538 -7.37377 23 ft 4 kts 326°
2026-04-16 20:34 57.47540 -7.37381 23 ft 0 kts 325°
2026-04-16 20:34 57.47541 -7.37382 22 ft 1 kts 325°
2026-04-16 20:34 57.47568 -7.37415 22 ft 6 kts 326°
2026-04-16 20:35 57.47578 -7.37428 22 ft 0 kts 327°
2026-04-16 20:37 57.47586 -7.37438 22 ft 4 kts 325°
2026-04-16 20:37 57.47645 -7.37492 20 ft 12 kts
2026-04-16 20:38 57.47692 -7.37391 20 ft 10 kts 56°
2026-04-16 20:38 57.47744 -7.37249 20 ft 15 kts 56°
2026-04-16 20:38 57.47818 -7.37051 20 ft 21 kts 56°
2026-04-16 20:38 57.47918 -7.36781 20 ft 28 kts 56°
2026-04-16 20:39 57.48034 -7.36466 20 ft 29 kts 57°
2026-04-16 20:39 57.48153 -7.36146 20 ft 30 kts 56°
2026-04-16 20:39 57.48275 -7.35818 20 ft 31 kts 56°
2026-04-16 20:39 57.48399 -7.35482 19 ft 32 kts 56°
2026-04-16 20:40 57.48526 -7.35138 17 ft 27 kts 57°
2026-04-16 20:40 57.48551 -7.35033 17 ft 2 kts
2026-04-16 20:40 57.48551 -7.35070 17 ft 4 kts 248°
2026-04-16 20:40 57.48527 -7.35140 17 ft 12 kts 236°
2026-04-16 20:41 57.48469 -7.35301 17 ft 0 kts 233°
2026-04-16 20:41 57.48467 -7.35304 17 ft 1 kts 233°
2026-04-16 20:41 57.48340 -7.35640 20 ft 69 kts 235°
2026-04-16 20:41 57.47939 -7.36727 20 ft 131 kts 234°
2026-04-16 20:42 57.47409 -7.38306 275 ft 149 kts 236°
2026-04-16 20:42 57.46995 -7.40067 851 ft 145 kts 239°
2026-04-16 20:42 57.46690 -7.41823 1391 ft 143 kts 242°
2026-04-16 20:42 57.46450 -7.43651 1789 ft 151 kts 245°
2026-04-16 20:43 57.46100 -7.45438 2154 ft 141 kts 216°
2026-04-16 20:43 57.45272 -7.46059 2497 ft 133 kts 174°
2026-04-16 20:43 57.44344 -7.45524 2862 ft 150 kts 160°
2026-04-16 20:43 57.43367 -7.44532 3202 ft 169 kts 154°
2026-04-16 20:44 57.42348 -7.43225 3536 ft 186 kts 150°
2026-04-16 20:44 57.41283 -7.41720 3995 ft 195 kts 149°
2026-04-16 20:44 57.40202 -7.40139 4488 ft 201 kts 148°
2026-04-16 20:44 57.39100 -7.38512 4977 ft 207 kts 148°
2026-04-16 20:45 57.37959 -7.36821 5467 ft 212 kts 148°
2026-04-16 20:45 57.36797 -7.35098 5955 ft 217 kts 148°
2026-04-16 20:45 57.35610 -7.33338 6440 ft 221 kts 148°
2026-04-16 20:45 57.34405 -7.31554 6930 ft 224 kts 148°
2026-04-16 20:46 57.33178 -7.29739 7417 ft 230 kts 147°
2026-04-16 20:46 57.31943 -7.27909 7893 ft 225 kts 147°
2026-04-16 20:46 57.30696 -7.26074 8364 ft 238 kts 148°
2026-04-16 20:46 57.29330 -7.24061 8818 ft 260 kts 147°
2026-04-16 20:47 57.27868 -7.21906 9327 ft 278 kts 146°
2026-04-16 20:47 57.26323 -7.19630 9860 ft 293 kts 146°
2026-04-16 20:47 57.24689 -7.17225 10493 ft 304 kts 146°
2026-04-16 20:47 57.23002 -7.14746 11139 ft 313 kts 146°
2026-04-16 20:48 57.21305 -7.12256 11768 ft 319 kts 146°
2026-04-16 20:48 57.19537 -7.09667 12410 ft 325 kts 146°
2026-04-16 20:48 57.17747 -7.07043 13059 ft 330 kts 146°
2026-04-16 20:48 57.15951 -7.04420 13671 ft 334 kts 146°
2026-04-16 20:49 57.14129 -7.01760 14296 ft 337 kts 146°
2026-04-16 20:49 57.12279 -6.99064 14903 ft 340 kts 146°
2026-04-16 20:49 57.10421 -6.96357 15538 ft 342 kts 147°
2026-04-16 20:49 57.08541 -6.93624 16176 ft 342 kts 146°
2026-04-16 20:50 57.06682 -6.90923 16799 ft 343 kts 146°
2026-04-16 20:50 57.04811 -6.88213 17339 ft 345 kts 146°
2026-04-16 20:50 57.02908 -6.85458 17822 ft 349 kts 146°
2026-04-16 20:50 57.00987 -6.82682 18121 ft 356 kts 146°
2026-04-16 20:51 56.99018 -6.79837 18229 ft 362 kts 146°
2026-04-16 20:51 56.97028 -6.76967 18668 ft 366 kts 147°
2026-04-16 20:51 56.95011 -6.74060 18783 ft 368 kts 147°
2026-04-16 20:51 56.93027 -6.71208 18797 ft 367 kts 146°
2026-04-16 20:52 56.91015 -6.68316 18785 ft 366 kts 146°
2026-04-16 20:52 56.88998 -6.65424 18793 ft 364 kts 146°
2026-04-16 20:52 56.87009 -6.62576 18804 ft 362 kts 146°
2026-04-16 20:52 56.85048 -6.59771 18795 ft 360 kts 147°
2026-04-16 20:53 56.83065 -6.56938 18805 ft 359 kts 147°
2026-04-16 20:53 56.81085 -6.54114 18811 ft 357 kts 146°
2026-04-16 20:53 56.79134 -6.51334 18820 ft 356 kts 146°
2026-04-16 20:53 56.77167 -6.48537 18829 ft 355 kts 146°
2026-04-16 20:54 56.75277 -6.45647 18817 ft 357 kts 140°
2026-04-16 20:54 56.73346 -6.43014 18835 ft 347 kts 156°
2026-04-16 20:54 56.71198 -6.40817 18827 ft 349 kts 152°
2026-04-16 20:54 56.69115 -6.38428 18832 ft 350 kts 151°
2026-04-16 20:55 56.67077 -6.36010 18833 ft 349 kts 150°
2026-04-16 20:55 56.65020 -6.33540 18840 ft 349 kts 151°
2026-04-16 20:55 56.63009 -6.31115 18830 ft 348 kts 151°
2026-04-16 20:55 56.60998 -6.28687 18835 ft 347 kts 151°
2026-04-16 20:56 56.58975 -6.26247 18849 ft 347 kts 150°
2026-04-16 20:56 56.56934 -6.23789 18837 ft 348 kts 151°
2026-04-16 20:56 56.54944 -6.21393 18839 ft 348 kts 151°
2026-04-16 20:56 56.52925 -6.18967 18835 ft 348 kts 151°
2026-04-16 20:57 56.50900 -6.16537 18836 ft 348 kts 151°
2026-04-16 20:57 56.48877 -6.14111 18838 ft 348 kts 151°
2026-04-16 20:57 56.46845 -6.11679 18842 ft 348 kts 151°
2026-04-16 20:57 56.44826 -6.09264 18844 ft 348 kts 151°
2026-04-16 20:58 56.42785 -6.06827 18843 ft 348 kts 151°
2026-04-16 20:58 56.40750 -6.04400 18847 ft 348 kts 151°
2026-04-16 20:58 56.38716 -6.01978 18851 ft 348 kts 150°
2026-04-16 20:58 56.36700 -5.99578 18859 ft 348 kts 151°
2026-04-16 20:59 56.34656 -5.97152 18856 ft 348 kts 150°
2026-04-16 20:59 56.32642 -5.94761 18861 ft 347 kts 150°
2026-04-16 20:59 56.30649 -5.92397 18863 ft 342 kts 151°
2026-04-16 20:59 56.28661 -5.90046 18799 ft 341 kts 151°
2026-04-16 21:00 56.26638 -5.87657 18497 ft 351 kts 152°
2026-04-16 21:00 56.24640 -5.85228 18008 ft 350 kts 145°
2026-04-16 21:00 56.23077 -5.81898 17377 ft 354 kts 123°
2026-04-16 21:00 56.22050 -5.77893 16781 ft 350 kts 118°
2026-04-16 21:01 56.21038 -5.73915 16134 ft 345 kts 118°
2026-04-16 21:01 56.20060 -5.70080 15547 ft 345 kts 120°
2026-04-16 21:01 56.19039 -5.66095 14910 ft 351 kts 118°
2026-04-16 21:01 56.18023 -5.62131 14393 ft 352 kts 118°
2026-04-16 21:02 56.16983 -5.58084 13818 ft 359 kts 117°
2026-04-16 21:02 56.15933 -5.53998 13224 ft 361 kts 118°
2026-04-16 21:02 56.14898 -5.49975 12590 ft 340 kts 118°
2026-04-16 21:03 56.13026 -5.42731 11493 ft 313 kts 120°
2026-04-16 21:03 56.12116 -5.39225 10917 ft 309 kts 119°
2026-04-16 21:03 56.11203 -5.35709 10418 ft 315 kts 119°
2026-04-16 21:03 56.10270 -5.32124 9923 ft 320 kts 119°
2026-04-16 21:04 56.09334 -5.28522 9503 ft 315 kts 120°
2026-04-16 21:04 56.08694 -5.24797 9094 ft 316 kts 99°
2026-04-16 21:04 56.08842 -5.20897 8801 ft 309 kts 88°
2026-04-16 21:04 56.09093 -5.17130 8480 ft 299 kts 88°
2026-04-16 21:05 56.09345 -5.13461 8159 ft 291 kts 88°
2026-04-16 21:05 56.09595 -5.09877 7848 ft 295 kts 88°
2026-04-16 21:05 56.09845 -5.06225 7535 ft 288 kts 88°
2026-04-16 21:05 56.10090 -5.02731 7219 ft 281 kts 88°
2026-04-16 21:06 56.10336 -4.99272 6975 ft 272 kts 88°
2026-04-16 21:06 56.10573 -4.96027 6952 ft 259 kts 88°
2026-04-16 21:06 56.10815 -4.92769 6665 ft 264 kts 88°
2026-04-16 21:06 56.11056 -4.89499 6306 ft 262 kts 88°
2026-04-16 21:07 56.11288 -4.86275 5952 ft 261 kts 88°
2026-04-16 21:07 56.11518 -4.83061 5618 ft 258 kts 88°
2026-04-16 21:07 56.11750 -4.79847 5367 ft 261 kts 88°
2026-04-16 21:07 56.11981 -4.76612 5283 ft 257 kts 88°
2026-04-16 21:08 56.12204 -4.73481 5197 ft 254 kts 88°
2026-04-16 21:08 56.12430 -4.70328 5116 ft 251 kts 88°
2026-04-16 21:08 56.12648 -4.67269 5023 ft 251 kts 87°
2026-04-16 21:08 56.12865 -4.64155 4935 ft 250 kts 89°
2026-04-16 21:09 56.13079 -4.61034 4858 ft 249 kts 88°
2026-04-16 21:09 56.13295 -4.57928 4786 ft 249 kts 88°
2026-04-16 21:09 56.13508 -4.54849 4707 ft 248 kts 88°
2026-04-16 21:09 56.13721 -4.51760 4623 ft 248 kts 88°
2026-04-16 21:10 56.13931 -4.48676 4537 ft 248 kts 88°
2026-04-16 21:10 56.14137 -4.45624 4461 ft 247 kts 88°
2026-04-16 21:10 56.14348 -4.42567 4383 ft 247 kts 88°
2026-04-16 21:10 56.14234 -4.39580 4300 ft 234 kts 117°
2026-04-16 21:11 56.13369 -4.37175 4246 ft 224 kts 133°
2026-04-16 21:11 56.12415 -4.34991 4164 ft 225 kts 134°
2026-04-16 21:11 56.11443 -4.32770 4083 ft 224 kts 134°
2026-04-16 21:11 56.10466 -4.30557 3994 ft 224 kts 134°
2026-04-16 21:12 56.09522 -4.28392 3942 ft 213 kts 134°
2026-04-16 21:12 56.08477 -4.26773 4020 ft 188 kts 158°
2026-04-16 21:12 56.07270 -4.25775 3964 ft 193 kts 159°
2026-04-16 21:12 56.06026 -4.24751 3843 ft 200 kts 160°
2026-04-16 21:13 56.04719 -4.23818 3687 ft 202 kts 168°
2026-04-16 21:13 56.03437 -4.23210 3430 ft 179 kts 168°
2026-04-16 21:13 56.02273 -4.22636 3367 ft 173 kts 169°
2026-04-16 21:13 56.01090 -4.22066 3386 ft 176 kts 169°
2026-04-16 21:14 55.99842 -4.21481 3537 ft 195 kts 169°
2026-04-16 21:14 55.98462 -4.20832 3808 ft 209 kts 169°
2026-04-16 21:14 55.97099 -4.19765 3932 ft 222 kts 147°
2026-04-16 21:14 55.96208 -4.17409 3974 ft 236 kts 120°
2026-04-16 21:15 55.95529 -4.14704 3976 ft 240 kts 121°
2026-04-16 21:15 55.94834 -4.11968 3970 ft 241 kts 121°
2026-04-16 21:15 55.94374 -4.09048 3937 ft 254 kts 98°
2026-04-16 21:15 55.94817 -4.06130 3927 ft 245 kts 63°
2026-04-16 21:16 55.96098 -4.04152 3957 ft 242 kts 25°
2026-04-16 21:16 55.97707 -4.03805 3974 ft 232 kts 347°
2026-04-16 21:16 55.99074 -4.05116 3958 ft 215 kts 308°
2026-04-16 21:16 55.99959 -4.07202 3991 ft 209 kts 299°
2026-04-16 21:17 56.00809 -4.09304 3981 ft 210 kts 299°
2026-04-16 21:17 56.01667 -4.11443 3973 ft 210 kts 299°
2026-04-16 21:17 56.02433 -4.13638 3939 ft 203 kts 282°
2026-04-16 21:17 56.02397 -4.15995 3949 ft 182 kts 241°
2026-04-16 21:18 56.01540 -4.17544 3871 ft 177 kts 210°
2026-04-16 21:18 56.00568 -4.18792 3640 ft 166 kts 216°
2026-04-16 21:18 55.99712 -4.20133 3447 ft 162 kts 219°
2026-04-16 21:18 55.98903 -4.21520 3260 ft 160 kts 220°
2026-04-16 21:19 55.98117 -4.22934 3030 ft 160 kts 221°
2026-04-16 21:19 55.97345 -4.24355 2791 ft 159 kts 221°
2026-04-16 21:19 55.96573 -4.25790 2576 ft 162 kts 222°
2026-04-16 21:19 55.95780 -4.27272 2352 ft 166 kts 222°
2026-04-16 21:20 55.94974 -4.28784 2122 ft 169 kts 221°
2026-04-16 21:20 55.94218 -4.30210 1899 ft 148 kts 221°
2026-04-16 21:20 55.93504 -4.31540 1693 ft 150 kts 221°
2026-04-16 21:20 55.92770 -4.32913 1482 ft 154 kts 222°
2026-04-16 21:21 55.92030 -4.34298 1268 ft 155 kts 222°
2026-04-16 21:21 55.91325 -4.35623 1051 ft 139 kts 222°
2026-04-16 21:21 55.90680 -4.36829 867 ft 131 kts 221°
2026-04-16 21:21 55.90054 -4.37996 690 ft 128 kts 221°
2026-04-16 21:22 55.89435 -4.39146 517 ft 126 kts 221°
2026-04-16 21:22 55.88826 -4.40264 340 ft 125 kts 221°
2026-04-16 21:22 55.88237 -4.41374 163 ft 124 kts 222°
2026-04-16 21:22 55.87646 -4.42483 24 ft 118 kts 222°
2026-04-16 21:23 55.87188 -4.43340 14 ft 68 kts 226°
2026-04-16 21:23 55.86935 -4.43810 16 ft 42 kts 226°
2026-04-16 21:23 55.86779 -4.44100 15 ft 24 kts 226°
2026-04-16 21:23 55.86657 -4.44320 15 ft 24 kts 223°
2026-04-16 21:24 55.86515 -4.44481 17 ft 23 kts 204°
2026-04-16 21:24 55.86384 -4.44532 18 ft 13 kts 159°
2026-04-16 21:24 55.86387 -4.44395 18 ft 14 kts 49°
2026-04-16 21:24 55.86460 -4.44257 18 ft 16 kts 47°
2026-04-16 21:25 55.86546 -4.44098 17 ft 18 kts 47°
2026-04-16 21:25 55.86641 -4.43919 17 ft 20 kts 47°
2026-04-16 21:25 55.86726 -4.43748 18 ft 17 kts 64°
2026-04-16 21:25 55.86762 -4.43536 17 ft 17 kts 75°
2026-04-16 21:26 55.86794 -4.43341 18 ft 16 kts 75°
2026-04-16 21:26 55.86829 -4.43131 18 ft 17 kts 73°
2026-04-16 21:26 55.86816 -4.43001 18 ft 11 kts 162°
2026-04-16 21:26 55.86744 -4.42967 21 ft 10 kts 163°
2026-04-16 21:27 55.86666 -4.42926 21 ft 12 kts 164°
2026-04-16 21:27 55.86586 -4.42889 21 ft 9 kts 174°
2026-04-16 21:27 55.86554 -4.42934 21 ft 7 kts 252°
2026-04-16 21:27 55.86543 -4.43004 21 ft 1 kts 254°
2026-04-16 21:28 55.86542 -4.43007 21 ft 0 kts 254°